createdAt,value
2022-11-25T00:01:10.140Z,98321.47
2022-11-25T00:03:15.151Z,98329.25
2022-11-25T00:05:19.926Z,98325.84
2022-11-25T00:07:24.974Z,98330.22
2022-11-25T00:09:29.786Z,98327.72
2022-11-25T00:11:36.816Z,98325.16
2022-11-25T00:13:45.433Z,98324.25
2022-11-25T00:15:50.205Z,98327.72
2022-11-25T00:17:55.451Z,98326.88
2022-11-25T00:20:01.756Z,98326.03
2022-11-25T00:22:06.255Z,98322.63
2022-11-25T00:24:11.200Z,98320.94
2022-11-25T00:26:18.722Z,98318.44
2022-11-25T00:28:23.559Z,98323.66
2022-11-25T00:30:30.974Z,98320.19
2022-11-25T00:32:35.858Z,98322.75
2022-11-25T00:34:40.695Z,98312.38
2022-11-25T00:36:46.131Z,98309.78
2022-11-25T00:38:55.203Z,98315.78
2022-11-25T00:41:12.544Z,98308.94
2022-11-25T00:43:29.740Z,98309.00
2022-11-25T00:45:37.172Z,98319.44
2022-11-25T00:47:44.044Z,98321.19
2022-11-25T00:49:50.889Z,98319.47
2022-11-25T00:51:55.917Z,98316.16
2022-11-25T00:54:00.715Z,98323.13
2022-11-25T00:56:18.342Z,98321.44
2022-11-25T00:58:23.169Z,98325.69
2022-11-25T01:00:27.930Z,98325.66
2022-11-25T01:02:35.361Z,98326.44
2022-11-25T01:04:40.502Z,98321.31
2022-11-25T01:06:46.374Z,98323.91
2022-11-25T01:08:53.116Z,98316.22
2022-11-25T01:11:01.526Z,98323.19
2022-11-25T01:13:06.282Z,98323.25
2022-11-25T01:15:12.705Z,98313.84
2022-11-25T01:17:17.526Z,98319.03
2022-11-25T01:19:25.252Z,98324.38
2022-11-25T01:21:31.900Z,98332.19
2022-11-25T01:23:36.990Z,98331.34
2022-11-25T01:25:42.692Z,98330.50
2022-11-25T01:27:47.549Z,98330.56
2022-11-25T01:29:52.283Z,98324.59
2022-11-25T01:31:58.796Z,98329.72
2022-11-25T01:34:07.283Z,98334.00
2022-11-25T01:36:18.219Z,98336.56
2022-11-25T01:38:22.981Z,98329.78
2022-11-25T01:40:27.847Z,98329.78
2022-11-25T01:42:33.859Z,98322.94
2022-11-25T01:44:42.566Z,98324.63
2022-11-25T01:46:58.290Z,98326.41
2022-11-25T01:49:04.730Z,98317.91
2022-11-25T01:51:23.176Z,98329.94
2022-11-25T01:53:28.104Z,98330.00
2022-11-25T01:55:38.964Z,98331.75
2022-11-25T01:57:48.096Z,98323.06
2022-11-25T01:59:55.232Z,98325.75
2022-11-25T02:14:57.265Z,98334.38
2022-11-25T02:17:04.078Z,98330.13
2022-11-25T02:19:21.233Z,98332.69
2022-11-25T02:21:32.505Z,98330.28
2022-11-25T02:23:43.640Z,98332.91
2022-11-25T02:25:51.396Z,98327.75
2022-11-25T02:28:01.033Z,98331.22
2022-11-25T02:30:06.989Z,98329.63
2022-11-25T02:32:12.731Z,98336.53
2022-11-25T02:34:18.694Z,98330.53
2022-11-25T02:36:25.723Z,98330.59
2022-11-25T02:38:42.014Z,98324.63
2022-11-25T02:40:55.911Z,98322.97
2022-11-25T02:43:03.339Z,98322.97
2022-11-25T02:45:15.024Z,98323.84
2022-11-25T02:47:20.322Z,98325.59
2022-11-25T02:49:25.451Z,98326.44
2022-11-25T02:51:32.979Z,98326.41
2022-11-25T02:53:38.123Z,98322.13
2022-11-25T02:55:43.466Z,98329.00
2022-11-25T02:57:50.831Z,98324.75
2022-11-25T02:59:55.926Z,98323.94
2022-11-25T03:02:01.161Z,98334.25
2022-11-25T03:04:06.019Z,98339.41
2022-11-25T03:06:11.621Z,98332.56
2022-11-25T03:08:17.313Z,98330.84
2022-11-25T03:10:23.264Z,98336.81
2022-11-25T03:12:29.657Z,98335.16
2022-11-25T03:14:38.629Z,98346.28
2022-11-25T03:16:48.724Z,98349.75
2022-11-25T03:18:53.800Z,98337.81
2022-11-25T03:20:59.264Z,98339.47
2022-11-25T03:23:04.485Z,98343.72
2022-11-25T03:25:09.561Z,98336.88
2022-11-25T03:27:14.741Z,98337.81
2022-11-25T03:29:19.596Z,98340.41
2022-11-25T03:31:27.481Z,98337.81
2022-11-25T03:33:32.641Z,98339.50
2022-11-25T03:35:37.753Z,98335.19
2022-11-25T03:37:43.010Z,98333.47
2022-11-25T03:39:52.702Z,98330.03
2022-11-25T03:41:57.864Z,98333.41
2022-11-25T03:44:03.720Z,98325.63
2022-11-25T03:46:09.252Z,98339.34
2022-11-25T03:48:17.137Z,98340.19
2022-11-25T03:50:22.403Z,98339.47
2022-11-25T03:52:27.901Z,98338.66
2022-11-25T03:54:34.799Z,98337.81
2022-11-25T03:56:55.713Z,98344.75
2022-11-25T03:59:00.840Z,98340.47
2022-11-25T04:01:07.028Z,98337.91
2022-11-25T04:03:12.730Z,98342.16
2022-11-25T04:05:20.662Z,98333.59
2022-11-25T04:07:27.140Z,98342.16
2022-11-25T04:09:34.111Z,98338.75
2022-11-25T04:11:54.364Z,98340.50
2022-11-25T04:13:59.570Z,98334.50
2022-11-25T04:16:04.394Z,98337.06
2022-11-25T04:18:10.094Z,98332.84
2022-11-25T04:20:16.648Z,98333.75
2022-11-25T04:22:29.966Z,98336.31
2022-11-25T04:24:37.292Z,98330.28
2022-11-25T04:26:43.350Z,98323.44
2022-11-25T04:28:48.142Z,98326.94
2022-11-25T04:30:53.560Z,98326.09
2022-11-25T04:32:59.090Z,98327.88
2022-11-25T04:35:04.301Z,98331.28
2022-11-25T04:37:09.631Z,98329.53
2022-11-25T04:39:17.108Z,98322.72
2022-11-25T04:41:22.609Z,98324.47
2022-11-25T04:43:27.552Z,98323.63
2022-11-25T04:46:12.634Z,98329.66
2022-11-25T04:48:09.157Z,98337.38
2022-11-25T04:50:18.873Z,98333.06
2022-11-25T04:52:33.778Z,98326.19
2022-11-25T04:54:41.545Z,98331.34
2022-11-25T04:56:46.603Z,98328.81
2022-11-25T04:59:04.101Z,98324.50
2022-11-25T05:01:09.347Z,98322.81
2022-11-25T05:03:17.501Z,98322.88
2022-11-25T05:05:22.825Z,98316.03
2022-11-25T05:07:30.748Z,98318.59
2022-11-25T05:09:36.120Z,98329.75
2022-11-25T05:11:59.900Z,98334.84
2022-11-25T05:14:05.264Z,98332.22
2022-11-25T05:16:11.527Z,98336.50
2022-11-25T05:18:18.346Z,98337.34
2022-11-25T05:20:26.488Z,98333.97
2022-11-25T05:22:33.498Z,98330.53
2022-11-25T05:24:39.271Z,98321.13
2022-11-25T05:26:45.494Z,98323.75
2022-11-25T05:28:53.302Z,98322.88
2022-11-25T05:30:58.702Z,98318.56
2022-11-25T05:33:04.050Z,98321.19
2022-11-25T05:35:11.647Z,98322.06
2022-11-25T05:37:22.829Z,98322.91
2022-11-25T05:39:34.066Z,98323.78
2022-11-25T05:41:57.853Z,98322.16
2022-11-25T05:44:05.561Z,98325.56
2022-11-25T05:46:12.852Z,98330.72
2022-11-25T05:48:24.463Z,98334.97
2022-11-25T05:50:30.395Z,98334.97
2022-11-25T05:52:42.991Z,98330.75
2022-11-25T05:54:48.181Z,98334.22
2022-11-25T05:56:55.124Z,98340.25
2022-11-25T05:59:35.022Z,98342.84
2022-11-25T06:01:48.201Z,98341.97
2022-11-25T06:03:53.674Z,98328.22
2022-11-25T06:05:59.221Z,98333.31
2022-11-25T06:08:04.287Z,98331.59
2022-11-25T06:10:10.147Z,98329.03
2022-11-25T06:12:17.807Z,98331.59
2022-11-25T06:14:27.113Z,98334.06
2022-11-25T06:16:38.461Z,98328.91
2022-11-25T06:18:58.157Z,98330.63
2022-11-25T06:21:04.882Z,98328.00
2022-11-25T06:23:10.510Z,98328.84
2022-11-25T06:25:19.583Z,98335.69
2022-11-25T06:27:29.636Z,98336.50
2022-11-25T06:29:44.133Z,98333.97
2022-11-25T06:31:53.115Z,98341.59
2022-11-25T06:34:18.406Z,98341.56
2022-11-25T06:36:24.919Z,98346.66
2022-11-25T06:38:30.699Z,98353.50
2022-11-25T06:40:35.777Z,98349.19
2022-11-25T06:42:43.533Z,98356.97
2022-11-25T06:44:48.605Z,98347.53
2022-11-25T06:46:56.336Z,98349.25
2022-11-25T06:49:02.750Z,98353.53
2022-11-25T06:51:10.107Z,98359.53
2022-11-25T06:53:17.753Z,98356.06
2022-11-25T06:55:26.328Z,98367.22
2022-11-25T06:57:34.094Z,98369.03
2022-11-25T06:59:39.489Z,98371.56
2022-11-25T07:01:44.702Z,98367.22
2022-11-25T07:03:54.184Z,98365.53
2022-11-25T07:05:59.734Z,98361.22
2022-11-25T07:08:04.764Z,98369.75
2022-11-25T07:10:11.718Z,98365.41
2022-11-25T07:12:16.943Z,98362.84
2022-11-25T07:14:21.705Z,98359.44
2022-11-25T07:16:27.168Z,98359.44
2022-11-25T07:18:34.021Z,98370.59
2022-11-25T07:20:41.870Z,98366.25
2022-11-25T07:22:47.408Z,98365.34
2022-11-25T07:24:52.913Z,98367.91
2022-11-25T07:26:57.974Z,98379.88
2022-11-25T07:29:06.388Z,98372.94
2022-11-25T07:31:34.806Z,98380.69
2022-11-25T07:33:40.228Z,98380.63
2022-11-25T07:35:47.574Z,98377.16
2022-11-25T07:37:53.324Z,98384.84
2022-11-25T07:39:58.417Z,98378.84
2022-11-25T07:42:03.500Z,98386.47
2022-11-25T07:44:10.511Z,98389.00
2022-11-25T07:46:43.641Z,98391.53
2022-11-25T07:48:49.254Z,98390.69
2022-11-25T07:50:56.936Z,98395.84
2022-11-25T07:53:02.322Z,98395.75
2022-11-25T07:55:08.022Z,98400.88
2022-11-25T07:57:13.159Z,98404.22
2022-11-25T07:59:21.162Z,98406.81
2022-11-25T08:01:27.155Z,98406.06
2022-11-25T08:03:32.286Z,98408.69
2022-11-25T08:05:37.627Z,98413.88
2022-11-25T08:07:46.730Z,98417.34
2022-11-25T08:09:51.916Z,98417.41
2022-11-25T08:11:57.122Z,98418.38
2022-11-25T08:14:02.840Z,98415.00
2022-11-25T08:16:09.345Z,98413.34
2022-11-25T08:18:14.446Z,98414.16
2022-11-25T08:20:19.497Z,98414.16
2022-11-25T08:22:24.574Z,98414.16
2022-11-25T08:24:32.301Z,98407.28
2022-11-25T08:26:39.757Z,98406.44
2022-11-25T08:28:48.156Z,98401.38
2022-11-25T08:30:53.258Z,98403.97
2022-11-25T08:32:58.722Z,98409.13
2022-11-25T08:35:04.042Z,98408.25
2022-11-25T08:37:09.328Z,98409.91
2022-11-25T08:39:36.309Z,98410.78
2022-11-25T08:41:42.247Z,98410.66
2022-11-25T08:43:47.485Z,98425.19
2022-11-25T08:45:53.258Z,98424.19
2022-11-25T08:47:58.536Z,98420.72
2022-11-25T08:50:03.268Z,98423.25
2022-11-25T08:52:08.336Z,98426.63
2022-11-25T08:54:14.612Z,98428.22
2022-11-25T08:56:25.467Z,98432.44
2022-11-25T08:58:33.940Z,98434.13
2022-11-25T09:00:39.246Z,98432.34
2022-11-25T09:02:44.408Z,98437.44
2022-11-25T09:04:49.305Z,98428.81
2022-11-25T09:06:54.433Z,98432.19
2022-11-25T09:09:01.984Z,98419.25
2022-11-25T09:11:07.811Z,98427.78
2022-11-25T09:13:13.407Z,98422.56
2022-11-25T09:15:21.269Z,98431.00
2022-11-25T09:17:27.587Z,98431.78
2022-11-25T09:19:32.609Z,98440.19
2022-11-25T09:21:37.881Z,98435.81
2022-11-25T09:23:43.727Z,98435.59
2022-11-25T09:25:55.142Z,98432.06
2022-11-25T09:28:00.465Z,98425.16
2022-11-25T09:30:08.249Z,98420.03
2022-11-25T09:32:15.924Z,98417.47
2022-11-25T09:34:21.040Z,98403.78
2022-11-25T09:36:26.808Z,98410.56
2022-11-25T09:38:31.948Z,98409.66
2022-11-25T09:40:44.730Z,98395.69
2022-11-25T09:43:09.938Z,98394.75
2022-11-25T09:45:35.305Z,98400.53
2022-11-25T09:47:57.777Z,98398.66
2022-11-25T09:50:15.726Z,98415.56
2022-11-25T09:52:30.177Z,98416.16
2022-11-25T09:54:40.132Z,98420.09
2022-11-25T09:56:51.012Z,98404.31
2022-11-25T09:59:02.491Z,98414.28
2022-11-25T10:01:09.930Z,98401.25
2022-11-25T10:03:36.222Z,98405.13
2022-11-25T10:05:44.296Z,98407.50
2022-11-25T10:07:56.541Z,98400.56
2022-11-25T10:10:04.389Z,98395.25
2022-11-25T10:12:16.659Z,98400.59
2022-11-25T10:14:31.346Z,98391.97
2022-11-25T10:16:47.231Z,98392.00
2022-11-25T10:19:03.643Z,98376.44
2022-11-25T10:21:09.383Z,98378.28
2022-11-25T10:23:23.573Z,98368.84
2022-11-25T10:25:34.518Z,98377.38
2022-11-25T10:27:46.778Z,98385.03
2022-11-25T10:30:02.927Z,98391.75
2022-11-25T10:32:21.512Z,98389.00
2022-11-25T10:34:36.698Z,98382.00
2022-11-25T10:36:44.394Z,98377.53
2022-11-25T10:39:00.230Z,98373.94
2022-11-25T10:41:06.346Z,98370.47
2022-11-25T10:43:15.848Z,98370.13
2022-11-25T10:45:25.970Z,98365.44
2022-11-25T10:47:40.478Z,98363.22
2022-11-25T10:50:00.069Z,98352.47
2022-11-25T10:52:12.867Z,98349.72
2022-11-25T10:54:27.215Z,98352.13
2022-11-25T10:56:32.870Z,98350.19
2022-11-25T10:58:39.707Z,98355.91
2022-11-25T11:00:44.767Z,98354.03
2022-11-25T11:02:50.118Z,98347.84
2022-11-25T11:04:59.791Z,98354.66
2022-11-25T11:07:11.921Z,98358.75
2022-11-25T11:09:37.214Z,98354.22
2022-11-25T11:11:51.004Z,98353.25
2022-11-25T11:14:02.551Z,98341.75
2022-11-25T11:16:23.744Z,98351.94
2022-11-25T11:18:31.721Z,98345.00
2022-11-25T11:20:39.574Z,98344.09
2022-11-25T11:22:51.244Z,98339.81
2022-11-25T11:25:08.970Z,98356.09
2022-11-25T11:27:23.781Z,98351.09
2022-11-25T11:29:28.988Z,98355.38
2022-11-25T11:31:39.371Z,98359.47
2022-11-25T11:33:54.437Z,98353.38
2022-11-25T11:36:13.729Z,98350.69
2022-11-25T11:38:29.326Z,98355.19
2022-11-25T11:40:42.203Z,98362.13
2022-11-25T11:43:00.379Z,98355.97
2022-11-25T11:45:19.236Z,98354.13
2022-11-25T11:47:31.504Z,98370.44
2022-11-25T11:49:59.862Z,98363.25
2022-11-25T11:52:17.354Z,98361.28
2022-11-25T11:54:33.424Z,98356.94
2022-11-25T11:56:43.221Z,98369.50
2022-11-25T11:59:01.559Z,98372.75
2022-11-25T12:01:22.518Z,98362.16
2022-11-25T12:03:30.401Z,98367.97
2022-11-25T12:05:38.276Z,98364.31
2022-11-25T12:07:55.418Z,98360.72
2022-11-25T12:10:06.291Z,98365.03
2022-11-25T12:12:19.312Z,98349.38
2022-11-25T12:14:34.313Z,98355.34
2022-11-25T12:16:46.017Z,98353.47
2022-11-25T12:18:57.641Z,98350.75
2022-11-25T12:21:05.580Z,98350.56
2022-11-25T12:23:21.976Z,98344.53
2022-11-25T12:25:31.457Z,98346.25
2022-11-25T12:27:40.442Z,98347.00
2022-11-25T12:29:50.822Z,98357.19
2022-11-25T12:32:03.217Z,98363.16
2022-11-25T12:34:14.648Z,98365.75
2022-11-25T12:36:27.212Z,98366.75
2022-11-25T12:38:42.744Z,98355.38
2022-11-25T12:40:53.152Z,98358.63
2022-11-25T12:43:15.514Z,98367.00
2022-11-25T12:45:24.864Z,98360.84
2022-11-25T12:47:30.223Z,98365.09
2022-11-25T12:49:43.649Z,98359.66
2022-11-25T12:52:19.051Z,98368.13
2022-11-25T12:54:39.791Z,98372.31
2022-11-25T12:57:03.841Z,98379.28
2022-11-25T12:59:28.215Z,98379.03
2022-11-25T13:01:52.239Z,98385.03
2022-11-25T13:04:26.327Z,98386.03
2022-11-25T13:06:47.180Z,98385.16
2022-11-25T13:09:02.286Z,98391.25
2022-11-25T13:11:37.914Z,98393.00
2022-11-25T13:13:54.342Z,98395.72
2022-11-25T13:16:04.227Z,98399.34
2022-11-25T13:18:15.100Z,98411.53
2022-11-25T13:20:38.476Z,98416.69
2022-11-25T13:22:43.597Z,98418.50
2022-11-25T13:24:48.662Z,98423.78
2022-11-25T13:26:56.365Z,98430.75
2022-11-25T13:29:02.297Z,98440.47
2022-11-25T13:31:27.581Z,98446.59
2022-11-25T13:34:05.142Z,98456.31
2022-11-25T13:36:20.646Z,98467.97
2022-11-25T13:39:02.730Z,98469.72
2022-11-25T13:41:25.981Z,98470.69
2022-11-25T13:43:33.686Z,98478.53
2022-11-25T13:45:43.718Z,98486.34
2022-11-25T13:47:51.958Z,98486.47
2022-11-25T13:49:59.188Z,98491.84
2022-11-25T13:52:11.267Z,98490.97
2022-11-25T13:54:23.766Z,98494.69
2022-11-25T13:56:32.647Z,98497.09
2022-11-25T13:58:40.290Z,98500.47
2022-11-25T14:01:07.433Z,98497.78
2022-11-25T14:03:42.322Z,98500.28
2022-11-25T14:06:02.872Z,98508.09
2022-11-25T14:08:18.185Z,98509.75
2022-11-25T14:10:38.984Z,98514.84
2022-11-25T14:13:01.721Z,98515.00
2022-11-25T14:15:23.969Z,98520.22
2022-11-25T14:17:51.698Z,98520.22
2022-11-25T14:20:16.929Z,98532.41
2022-11-25T14:22:36.318Z,98535.84
2022-11-25T14:24:48.171Z,98531.56
2022-11-25T14:26:55.010Z,98533.13
2022-11-25T14:29:03.700Z,98533.94
2022-11-25T14:31:16.862Z,98537.34
2022-11-25T14:33:26.859Z,98534.75
2022-11-25T14:35:45.056Z,98546.00
2022-11-25T14:37:54.623Z,98536.47
2022-11-25T14:40:04.352Z,98544.22
2022-11-25T14:42:12.782Z,98552.03
2022-11-25T14:44:22.942Z,98557.31
2022-11-25T14:46:30.720Z,98553.03
2022-11-25T14:48:35.743Z,98562.63
2022-11-25T14:50:41.319Z,98562.56
2022-11-25T14:52:48.283Z,98563.44
2022-11-25T14:54:55.138Z,98566.91
2022-11-25T14:57:00.315Z,98578.25
2022-11-25T14:59:05.308Z,98572.50
2022-11-25T15:01:19.950Z,98585.53
2022-11-25T15:03:27.961Z,98582.25
2022-11-25T15:05:36.194Z,98584.97
2022-11-25T15:07:46.231Z,98580.88
2022-11-25T15:09:52.323Z,98587.94
2022-11-25T15:12:00.344Z,98590.84
2022-11-25T15:14:08.004Z,98592.53
2022-11-25T15:16:18.198Z,98592.50
2022-11-25T15:18:27.940Z,98596.06
2022-11-25T15:20:35.370Z,98599.75
2022-11-25T15:22:40.615Z,98604.16
2022-11-25T15:24:54.486Z,98606.16
2022-11-25T15:27:02.895Z,98609.84
2022-11-25T15:29:14.689Z,98609.69
2022-11-25T15:31:22.112Z,98620.91
2022-11-25T15:33:31.512Z,98619.03
2022-11-25T15:35:36.932Z,98619.03
2022-11-25T15:37:42.038Z,98622.28
2022-11-25T15:39:47.434Z,98630.09
2022-11-25T15:41:53.678Z,98628.41
2022-11-25T15:44:00.980Z,98635.38
2022-11-25T15:46:09.012Z,98638.78
2022-11-25T15:48:19.896Z,98639.56
2022-11-25T15:50:29.387Z,98645.53
2022-11-25T15:52:36.357Z,98638.59
2022-11-25T15:54:44.405Z,98642.97
2022-11-25T15:56:51.970Z,98646.41
2022-11-25T15:59:01.528Z,98645.56
2022-11-25T16:01:22.308Z,98650.97
2022-11-25T16:03:27.436Z,98651.94
2022-11-25T16:05:39.262Z,98658.00
2022-11-25T16:08:00.134Z,98651.94
2022-11-25T16:10:06.278Z,98662.25
2022-11-25T16:12:20.433Z,98670.94
2022-11-25T16:14:30.795Z,98664.94
2022-11-25T16:16:38.721Z,98670.22
2022-11-25T16:18:47.544Z,98674.66
2022-11-25T16:20:57.980Z,98683.44
2022-11-25T16:23:07.145Z,98683.34
2022-11-25T16:25:13.085Z,98682.69
2022-11-25T16:27:21.593Z,98678.34
2022-11-25T16:29:33.229Z,98691.41
2022-11-25T16:31:38.246Z,98686.31
2022-11-25T16:33:43.371Z,98685.41
2022-11-25T16:35:48.526Z,98686.22
2022-11-25T16:38:00.887Z,98691.41
2022-11-25T16:40:06.979Z,98692.34
2022-11-25T16:42:20.270Z,98689.66
2022-11-25T16:44:27.427Z,98696.00
2022-11-25T16:46:32.897Z,98702.81
2022-11-25T16:48:37.928Z,98696.69
2022-11-25T16:50:42.997Z,98694.94
2022-11-25T16:52:48.138Z,98695.00
2022-11-25T16:54:55.760Z,98707.91
2022-11-25T16:57:01.543Z,98708.81
2022-11-25T16:59:06.983Z,98720.94
2022-11-25T17:01:16.428Z,98720.03
2022-11-25T17:03:22.202Z,98723.56
2022-11-25T17:05:30.254Z,98739.13
2022-11-25T17:07:35.553Z,98735.69
2022-11-25T17:09:41.010Z,98736.44
2022-11-25T17:11:54.974Z,98740.84
2022-11-25T17:14:04.204Z,98742.63
2022-11-25T17:16:13.097Z,98739.97
2022-11-25T17:18:21.454Z,98743.31
2022-11-25T17:20:27.785Z,98744.13
2022-11-25T17:22:38.720Z,98740.88
2022-11-25T17:24:44.629Z,98745.38
2022-11-25T17:26:59.273Z,98754.84
2022-11-25T17:29:06.961Z,98756.44
2022-11-25T17:31:13.762Z,98755.47
2022-11-25T17:33:23.112Z,98757.13
2022-11-25T17:35:29.266Z,98764.72
2022-11-25T17:37:35.647Z,98766.50
2022-11-25T17:39:40.863Z,98764.91
2022-11-25T17:41:50.792Z,98763.38
2022-11-25T17:43:59.566Z,98768.81
2022-11-25T17:46:05.074Z,98768.03
2022-11-25T17:48:13.087Z,98777.00
2022-11-25T17:50:21.408Z,98787.50
2022-11-25T17:52:26.600Z,98790.41
2022-11-25T17:54:31.428Z,98786.97
2022-11-25T17:56:36.641Z,98790.63
2022-11-25T17:58:41.854Z,98794.06
2022-11-25T18:00:49.302Z,98795.13
2022-11-25T18:02:54.726Z,98793.38
2022-11-25T18:04:59.531Z,98801.97
2022-11-25T18:07:04.897Z,98799.38
2022-11-25T18:09:09.981Z,98805.38
2022-11-25T18:11:23.071Z,98799.31
2022-11-25T18:13:28.362Z,98808.84
2022-11-25T18:15:34.865Z,98807.25
2022-11-25T18:17:42.647Z,98811.69
2022-11-25T18:19:54.638Z,98817.75
2022-11-25T18:22:03.271Z,98826.41
2022-11-25T18:24:10.451Z,98823.81
2022-11-25T18:26:15.682Z,98828.94
2022-11-25T18:28:21.895Z,98827.31
2022-11-25T18:30:31.012Z,98840.28
2022-11-25T18:32:36.170Z,98842.78
2022-11-25T18:34:44.257Z,98834.06
2022-11-25T18:36:49.307Z,98838.34
2022-11-25T18:38:54.216Z,98835.72
2022-11-25T18:40:59.566Z,98838.25
2022-11-25T18:43:06.380Z,98847.72
2022-11-25T18:45:18.725Z,98852.06
2022-11-25T18:47:23.773Z,98849.53
2022-11-25T18:49:28.854Z,98858.16
2022-11-25T18:51:36.627Z,98867.59
2022-11-25T18:53:41.809Z,98862.41
2022-11-25T18:55:46.823Z,98858.16
2022-11-25T18:57:53.462Z,98865.88
2022-11-25T19:00:24.329Z,98867.53
2022-11-25T19:02:26.305Z,98869.16
2022-11-25T19:04:31.653Z,98870.75
2022-11-25T19:06:41.693Z,98874.19
2022-11-25T19:08:46.743Z,98877.63
2022-11-25T19:10:52.335Z,98887.16
2022-11-25T19:13:00.666Z,98886.25
2022-11-25T19:15:06.165Z,98891.31
2022-11-25T19:17:19.785Z,98888.56
2022-11-25T19:19:25.313Z,98898.81
2022-11-25T19:21:30.751Z,98896.13
2022-11-25T19:23:38.512Z,98907.28
2022-11-25T19:25:43.665Z,98913.28
2022-11-25T19:27:53.141Z,98918.41
2022-11-25T19:29:58.355Z,98911.47
2022-11-25T19:32:08.467Z,98920.00
2022-11-25T19:34:23.675Z,98928.47
2022-11-25T19:36:31.352Z,98933.56
2022-11-25T19:38:38.959Z,98932.56
2022-11-25T19:40:44.006Z,98929.13
2022-11-25T19:42:52.095Z,98946.38
2022-11-25T19:44:57.119Z,98949.06
2022-11-25T19:47:17.681Z,98948.22
2022-11-25T19:49:24.082Z,98949.06
2022-11-25T19:51:32.766Z,98958.53
2022-11-25T19:53:40.417Z,98954.09
2022-11-25T19:55:46.907Z,98954.88
2022-11-25T19:57:53.076Z,98964.41
2022-11-25T19:59:58.095Z,98961.81
2022-11-25T20:02:03.318Z,98955.78
2022-11-25T20:04:08.386Z,98963.59
2022-11-25T20:06:17.022Z,98964.50
2022-11-25T20:08:24.051Z,98979.22
2022-11-25T20:10:34.019Z,98977.38
2022-11-25T20:12:39.432Z,98987.69
2022-11-25T20:14:44.565Z,98985.25
2022-11-25T20:16:49.661Z,98994.78
2022-11-25T20:18:56.014Z,98985.22
2022-11-25T20:21:05.686Z,98991.19
2022-11-25T20:23:15.199Z,98994.63
2022-11-25T20:25:20.408Z,98989.44
2022-11-25T20:27:28.669Z,98994.78
2022-11-25T20:29:33.765Z,98993.94
2022-11-25T20:31:38.789Z,98998.44
2022-11-25T20:33:43.692Z,99008.19
2022-11-25T20:35:52.315Z,99015.13
2022-11-25T20:37:58.183Z,99005.63
2022-11-25T20:40:04.080Z,99016.03
2022-11-25T20:42:09.617Z,99017.72
2022-11-25T20:44:17.831Z,99013.31
2022-11-25T20:46:25.019Z,99021.06
2022-11-25T20:48:31.623Z,99015.84
2022-11-25T20:50:36.780Z,99020.97
2022-11-25T20:52:42.287Z,99023.56
2022-11-25T20:54:47.366Z,99027.91
2022-11-25T20:56:52.429Z,99034.84
2022-11-25T20:58:58.361Z,99032.25
2022-11-25T21:01:06.648Z,99037.38
2022-11-25T21:03:11.766Z,99039.09
2022-11-25T21:05:19.923Z,99039.97
2022-11-25T21:07:25.004Z,99040.09
2022-11-25T21:09:36.697Z,99043.59
2022-11-25T21:11:41.805Z,99056.59
2022-11-25T21:13:47.295Z,99054.06
2022-11-25T21:15:53.361Z,99057.59
2022-11-25T21:18:01.107Z,99063.81
2022-11-25T21:20:06.466Z,99067.31
2022-11-25T21:22:16.516Z,99063.88
2022-11-25T21:24:30.768Z,99074.19
2022-11-25T21:26:36.292Z,99066.47
2022-11-25T21:28:48.346Z,99071.59
2022-11-25T21:30:53.975Z,99068.16
2022-11-25T21:33:03.281Z,99072.44
2022-11-25T21:35:09.324Z,99076.72
2022-11-25T21:37:14.597Z,99074.06
2022-11-25T21:39:26.082Z,99075.94
2022-11-25T21:41:31.290Z,99084.50
2022-11-25T21:43:42.925Z,99091.31
2022-11-25T21:45:48.825Z,99100.75
2022-11-25T21:47:54.024Z,99096.34
2022-11-25T21:50:01.937Z,99098.16
2022-11-25T21:52:07.361Z,99099.03
2022-11-25T21:54:13.327Z,99105.19
2022-11-25T21:56:24.957Z,99117.31
2022-11-25T21:58:32.845Z,99111.28
2022-11-25T22:00:38.294Z,99108.56
2022-11-25T22:02:44.231Z,99113.75
2022-11-25T22:04:49.570Z,99108.63
2022-11-25T22:06:57.402Z,99114.56
2022-11-25T22:09:02.452Z,99110.28
2022-11-25T22:11:08.727Z,99109.38
2022-11-25T22:13:17.859Z,99113.59
2022-11-25T22:15:25.337Z,99112.69
2022-11-25T22:17:32.169Z,99108.31
2022-11-25T22:19:37.346Z,99115.16
2022-11-25T22:21:42.130Z,99110.09
2022-11-25T22:23:49.774Z,99108.47
2022-11-25T22:25:55.402Z,99113.66
2022-11-25T22:28:00.509Z,99112.88
2022-11-25T22:30:06.238Z,99112.13
2022-11-25T22:32:14.758Z,99118.28
2022-11-25T22:34:25.136Z,99116.66
2022-11-25T22:36:35.891Z,99121.97
2022-11-25T22:38:42.119Z,99124.66
2022-11-25T22:40:53.322Z,99136.97
2022-11-25T22:43:00.947Z,99140.47
2022-11-25T22:45:10.382Z,99139.63
2022-11-25T22:47:22.730Z,99141.41
2022-11-25T22:49:33.890Z,99144.06
2022-11-25T22:51:39.124Z,99139.78
2022-11-25T22:53:44.152Z,99147.50
2022-11-25T22:55:53.870Z,99140.56
2022-11-25T22:58:00.493Z,99143.22
2022-11-25T23:00:05.575Z,99152.69
2022-11-25T23:02:16.377Z,99162.94
2022-11-25T23:04:23.166Z,99155.13
2022-11-25T23:06:31.135Z,99167.13
2022-11-25T23:08:36.176Z,99167.13
2022-11-25T23:10:41.432Z,99164.53
2022-11-25T23:12:49.812Z,99166.22
2022-11-25T23:14:54.902Z,99164.47
2022-11-25T23:16:59.993Z,99166.16
2022-11-25T23:19:06.136Z,99162.72
2022-11-25T23:21:19.706Z,99160.19
2022-11-25T23:23:27.149Z,99168.06
2022-11-25T23:25:32.193Z,99174.19
2022-11-25T23:27:37.343Z,99177.72
2022-11-25T23:29:45.154Z,99173.44
2022-11-25T23:31:50.890Z,99177.81
2022-11-25T23:33:55.977Z,99173.56
2022-11-25T23:36:07.576Z,99181.41
2022-11-25T23:38:19.292Z,99188.44
2022-11-25T23:40:26.493Z,99183.34
2022-11-25T23:42:31.573Z,99183.34
2022-11-25T23:44:36.947Z,99188.59
2022-11-25T23:46:48.489Z,99190.25
2022-11-25T23:48:57.768Z,99191.13
2022-11-25T23:51:03.634Z,99191.06
2022-11-25T23:53:16.166Z,99191.03
2022-11-25T23:55:28.122Z,99197.88
2022-11-25T23:57:35.896Z,99195.22
2022-11-25T23:59:40.917Z,99188.28
